createdAt,value
2023-04-02T00:01:04.906Z,9.05
2023-04-02T00:04:12.065Z,9.05
2023-04-02T00:07:33.755Z,8.97
2023-04-02T00:10:46.168Z,8.96
2023-04-02T00:13:48.367Z,8.97
2023-04-02T00:16:52.146Z,9.14
2023-04-02T00:19:54.304Z,9.22
2023-04-02T00:22:56.780Z,9.20
2023-04-02T00:25:58.875Z,9.21
2023-04-02T00:29:02.078Z,9.25
2023-04-02T00:32:04.575Z,9.28
2023-04-02T00:35:12.221Z,9.35
2023-04-02T00:38:29.615Z,9.31
2023-04-02T00:41:36.133Z,9.38
2023-04-02T00:44:42.856Z,9.47
2023-04-02T00:47:45.523Z,9.28
2023-04-02T00:50:47.968Z,9.47
2023-04-02T00:53:52.409Z,9.52
2023-04-02T00:56:55.683Z,9.37
2023-04-02T00:59:58.181Z,9.55
2023-04-02T01:03:22.991Z,9.75
2023-04-02T01:06:31.121Z,9.75
2023-04-02T01:09:51.759Z,9.71
2023-04-02T01:13:04.620Z,9.77
2023-04-02T01:16:39.317Z,9.69
2023-04-02T01:19:42.463Z,9.72
2023-04-02T01:22:51.055Z,9.66
2023-04-02T01:25:56.427Z,9.67
2023-04-02T01:29:01.592Z,9.84
2023-04-02T01:32:09.003Z,9.77
2023-04-02T01:35:12.085Z,9.72
2023-04-02T01:38:21.168Z,9.87
2023-04-02T01:41:31.908Z,9.84
2023-04-02T01:44:41.704Z,9.79
2023-04-02T01:47:44.814Z,9.80
2023-04-02T01:50:49.872Z,9.76
2023-04-02T01:53:52.012Z,9.90
2023-04-02T01:56:55.658Z,9.90
2023-04-02T01:59:59.143Z,9.85
2023-04-02T02:03:02.525Z,9.72
2023-04-02T02:06:05.835Z,9.65
2023-04-02T02:09:12.538Z,9.77
2023-04-02T02:12:15.778Z,9.86
2023-04-02T02:15:22.517Z,9.87
2023-04-02T02:18:26.284Z,9.76
2023-04-02T02:21:35.516Z,9.80
2023-04-02T02:24:38.660Z,9.90
2023-04-02T02:27:44.766Z,9.88
2023-04-02T02:30:57.270Z,9.86
2023-04-02T02:34:04.305Z,9.86
2023-04-02T02:37:12.528Z,9.87
2023-04-02T02:40:21.564Z,9.74
2023-04-02T02:43:24.701Z,9.86
2023-04-02T02:46:27.535Z,9.81
2023-04-02T02:49:32.066Z,9.74
2023-04-02T02:52:38.709Z,9.65
2023-04-02T02:55:41.633Z,9.56
2023-04-02T02:58:44.539Z,9.65
2023-04-02T03:01:48.174Z,9.63
2023-04-02T03:04:53.089Z,9.66
2023-04-02T03:07:57.787Z,9.57
2023-04-02T03:11:05.729Z,9.57
2023-04-02T03:14:22.961Z,9.55
2023-04-02T03:17:41.132Z,9.54
2023-04-02T03:20:48.083Z,9.46
2023-04-02T03:23:57.597Z,9.42
2023-04-02T03:27:16.338Z,9.30
2023-04-02T03:30:22.049Z,9.40
2023-04-02T03:33:30.066Z,9.28
2023-04-02T03:36:35.337Z,9.39
2023-04-02T03:39:54.694Z,9.53
2023-04-02T03:43:03.631Z,9.50
2023-04-02T03:46:18.544Z,9.63
2023-04-02T03:49:27.957Z,9.65
2023-04-02T03:52:31.075Z,9.63
2023-04-02T03:55:37.243Z,9.50
2023-04-02T03:58:44.265Z,9.52
2023-04-02T04:01:52.109Z,9.64
2023-04-02T04:04:56.212Z,9.61
2023-04-02T04:08:03.564Z,9.63
2023-04-02T04:11:09.945Z,9.65
2023-04-02T04:14:28.759Z,9.87
2023-04-02T04:17:34.954Z,9.79
2023-04-02T04:21:00.831Z,9.91
2023-04-02T04:24:16.450Z,10.07
2023-04-02T04:27:24.068Z,9.94
2023-04-02T04:30:30.797Z,9.89
2023-04-02T04:33:40.024Z,9.80
2023-04-02T04:36:53.976Z,9.91
2023-04-02T04:40:04.163Z,10.05
2023-04-02T04:43:11.131Z,10.22
2023-04-02T04:46:46.850Z,10.27
2023-04-02T04:50:09.277Z,10.05
2023-04-02T04:53:20.899Z,10.16
2023-04-02T04:56:26.818Z,10.10
2023-04-02T04:59:32.456Z,10.10
2023-04-02T05:02:41.133Z,10.24
2023-04-02T05:05:44.317Z,10.31
2023-04-02T05:08:51.700Z,10.15
2023-04-02T05:12:18.196Z,10.34
2023-04-02T05:15:30.543Z,10.41
2023-04-02T05:18:39.004Z,10.64
2023-04-02T05:21:42.037Z,11.29
2023-04-02T05:24:44.278Z,13.72
2023-04-02T05:27:47.173Z,16.17
2023-04-02T05:30:52.861Z,18.38
2023-04-02T05:33:56.526Z,19.46
2023-04-02T05:36:58.941Z,20.14
2023-04-02T05:40:13.478Z,20.30
2023-04-02T05:43:19.360Z,21.64
2023-04-02T05:46:28.481Z,22.40
2023-04-02T05:49:42.959Z,23.22
2023-04-02T05:52:48.763Z,23.90
2023-04-02T05:56:11.450Z,23.03
2023-04-02T05:59:19.578Z,20.97
2023-04-02T06:02:42.689Z,18.34
2023-04-02T06:05:46.697Z,16.98
2023-04-02T06:08:52.491Z,17.13
2023-04-02T06:12:13.727Z,16.52
2023-04-02T06:15:21.575Z,16.17
2023-04-02T06:18:28.896Z,16.98
2023-04-02T06:21:31.645Z,18.55
2023-04-02T06:24:36.105Z,18.49
2023-04-02T06:27:40.089Z,17.79
2023-04-02T06:30:43.462Z,17.15
2023-04-02T06:33:46.219Z,16.54
2023-04-02T06:36:50.408Z,15.97
2023-04-02T06:39:52.849Z,16.31
2023-04-02T06:42:59.752Z,15.70
2023-04-02T06:46:15.294Z,16.15
2023-04-02T06:49:28.770Z,15.96
2023-04-02T06:52:35.177Z,16.19
2023-04-02T06:55:47.660Z,16.11
2023-04-02T06:58:51.314Z,16.40
2023-04-02T07:02:12.952Z,16.37
2023-04-02T07:05:16.574Z,15.92
2023-04-02T07:08:19.558Z,15.82
2023-04-02T07:11:22.901Z,16.11
2023-04-02T07:14:25.774Z,15.74
2023-04-02T07:17:27.995Z,15.66
2023-04-02T07:20:31.715Z,15.83
2023-04-02T07:23:34.060Z,16.02
2023-04-02T07:26:36.557Z,15.68
2023-04-02T07:29:43.384Z,15.57
2023-04-02T07:32:45.891Z,16.08
2023-04-02T07:35:49.338Z,15.50
2023-04-02T07:38:52.289Z,15.61
2023-04-02T07:41:55.414Z,15.94
2023-04-02T07:45:00.118Z,16.06
2023-04-02T07:48:06.968Z,16.22
2023-04-02T07:51:20.599Z,16.62
2023-04-02T07:54:22.749Z,16.65
2023-04-02T07:57:25.161Z,16.46
2023-04-02T08:00:28.708Z,16.51
2023-04-02T08:03:31.338Z,16.39
2023-04-02T08:06:33.550Z,16.99
2023-04-02T08:09:36.112Z,16.84
2023-04-02T08:12:38.513Z,16.49
2023-04-02T08:15:41.184Z,16.94
2023-04-02T08:18:43.552Z,16.62
2023-04-02T08:21:46.122Z,16.87
2023-04-02T08:24:48.124Z,17.11
2023-04-02T08:27:50.642Z,16.82
2023-04-02T08:30:52.841Z,17.07
2023-04-02T08:33:56.829Z,17.18
2023-04-02T08:36:59.162Z,17.49
2023-04-02T08:40:01.556Z,17.70
2023-04-02T08:43:18.973Z,17.80
2023-04-02T08:46:37.680Z,17.92
2023-04-02T08:49:43.976Z,17.98
2023-04-02T08:52:46.663Z,17.67
2023-04-02T08:55:55.787Z,17.98
2023-04-02T08:59:01.868Z,17.86
2023-04-02T09:02:22.958Z,17.73
2023-04-02T09:05:28.246Z,17.68
2023-04-02T09:08:31.541Z,17.76
2023-04-02T09:11:38.342Z,17.79
2023-04-02T09:14:44.845Z,17.84
2023-04-02T09:17:54.013Z,17.79
2023-04-02T09:20:56.327Z,17.96
2023-04-02T09:23:58.655Z,17.98
2023-04-02T09:27:01.324Z,18.22
2023-04-02T09:30:04.078Z,18.33
2023-04-02T09:33:09.550Z,18.02
2023-04-02T09:36:19.814Z,17.89
2023-04-02T09:39:28.081Z,17.93
2023-04-02T09:42:36.258Z,17.97
2023-04-02T09:45:38.955Z,18.35
2023-04-02T09:48:58.079Z,18.46
2023-04-02T09:52:08.908Z,18.10
2023-04-02T09:55:14.537Z,18.29
2023-04-02T09:58:17.038Z,17.94
2023-04-02T10:01:39.395Z,17.73
2023-04-02T10:04:47.321Z,17.75
2023-04-02T10:07:50.922Z,17.45
2023-04-02T10:10:55.277Z,17.73
2023-04-02T10:13:59.024Z,17.20
2023-04-02T10:17:05.994Z,17.45
2023-04-02T10:20:20.112Z,17.23
2023-04-02T10:23:24.789Z,17.20
2023-04-02T10:26:33.776Z,17.39
2023-04-02T10:29:42.104Z,17.42
2023-04-02T10:32:55.767Z,17.85
2023-04-02T10:36:23.838Z,17.56
2023-04-02T10:39:34.519Z,17.66
2023-04-02T10:42:46.242Z,17.45
2023-04-02T10:45:56.586Z,17.35
2023-04-02T10:48:58.904Z,17.57
2023-04-02T10:52:19.894Z,17.24
2023-04-02T10:55:25.457Z,17.53
2023-04-02T10:58:30.069Z,17.67
2023-04-02T11:01:34.572Z,17.81
2023-04-02T11:04:41.665Z,17.66
2023-04-02T11:07:55.776Z,17.65
2023-04-02T11:10:57.762Z,17.28
2023-04-02T11:14:00.524Z,17.37
2023-04-02T11:17:05.345Z,17.30
2023-04-02T11:20:26.549Z,18.11
2023-04-02T11:23:33.559Z,18.64
2023-04-02T11:26:37.476Z,18.73
2023-04-02T11:29:48.005Z,18.96
2023-04-02T11:32:51.277Z,18.90
2023-04-02T11:35:53.439Z,18.77
2023-04-02T11:39:01.914Z,18.62
2023-04-02T11:42:19.107Z,18.55
2023-04-02T11:45:21.578Z,18.12
2023-04-02T11:48:23.625Z,18.07
2023-04-02T11:51:32.196Z,18.05
2023-04-02T11:54:37.077Z,18.12
2023-04-02T11:57:45.381Z,17.98
2023-04-02T12:01:05.686Z,17.52
2023-04-02T12:04:26.876Z,17.49
2023-04-02T12:07:52.134Z,17.80
2023-04-02T12:10:59.654Z,17.73
2023-04-02T12:14:02.993Z,17.79
2023-04-02T12:17:16.210Z,17.73
2023-04-02T12:20:23.159Z,18.08
2023-04-02T12:23:33.073Z,18.11
2023-04-02T12:26:38.596Z,18.54
2023-04-02T12:29:41.506Z,18.73
2023-04-02T12:32:43.629Z,18.60
2023-04-02T12:35:47.084Z,18.66
2023-04-02T12:38:51.332Z,18.71
2023-04-02T12:41:53.785Z,18.78
2023-04-02T12:44:56.017Z,18.66
2023-04-02T12:48:01.329Z,18.34
2023-04-02T12:51:04.188Z,18.69
2023-04-02T12:54:07.098Z,18.70
2023-04-02T12:57:27.799Z,18.78
2023-04-02T13:00:31.630Z,18.49
2023-04-02T13:03:33.804Z,18.38
2023-04-02T13:06:36.487Z,18.22
2023-04-02T13:09:46.235Z,17.84
2023-04-02T13:12:49.016Z,17.74
2023-04-02T13:16:06.448Z,17.59
2023-04-02T13:19:20.641Z,17.39
2023-04-02T13:22:32.049Z,17.55
2023-04-02T13:25:36.149Z,17.65
2023-04-02T13:28:38.689Z,17.96
2023-04-02T13:31:41.520Z,18.06
2023-04-02T13:34:43.614Z,18.36
2023-04-02T13:37:46.057Z,18.33
2023-04-02T13:40:48.224Z,18.06
2023-04-02T13:43:50.883Z,18.04
2023-04-02T13:46:53.827Z,17.77
2023-04-02T13:49:56.156Z,17.64
2023-04-02T13:53:00.361Z,17.47
2023-04-02T13:56:02.845Z,17.35
2023-04-02T13:59:05.239Z,17.33
2023-04-02T14:02:13.991Z,17.30
2023-04-02T14:05:29.071Z,17.17
2023-04-02T14:08:39.040Z,17.17
2023-04-02T14:11:43.934Z,16.97
2023-04-02T14:15:05.035Z,16.87
2023-04-02T14:18:15.450Z,16.76
2023-04-02T14:21:26.606Z,16.85
2023-04-02T14:24:45.413Z,16.40
2023-04-02T14:27:47.440Z,16.22
2023-04-02T14:30:52.939Z,16.13
2023-04-02T14:33:56.961Z,16.20
2023-04-02T14:37:01.489Z,16.15
2023-04-02T14:40:12.423Z,16.05
2023-04-02T14:43:17.802Z,16.07
2023-04-02T14:46:26.090Z,15.83
2023-04-02T14:49:39.630Z,15.49
2023-04-02T14:52:44.194Z,15.20
2023-04-02T14:55:48.457Z,15.13
2023-04-02T14:58:54.391Z,14.99
2023-04-02T15:02:14.149Z,14.80
2023-04-02T15:05:19.015Z,14.93
2023-04-02T15:08:24.214Z,14.79
2023-04-02T15:11:29.380Z,14.78
2023-04-02T15:14:35.089Z,14.52
2023-04-02T15:17:37.418Z,14.24
2023-04-02T15:20:43.557Z,13.96
2023-04-02T15:24:01.800Z,13.74
2023-04-02T15:27:24.446Z,13.41
2023-04-02T15:30:35.472Z,12.40
2023-04-02T15:33:38.074Z,11.46
2023-04-02T15:37:01.292Z,11.04
2023-04-02T15:40:03.646Z,10.80
2023-04-02T15:43:24.677Z,10.83
2023-04-02T15:46:36.448Z,11.00
2023-04-02T15:49:57.308Z,10.96
2023-04-02T15:53:08.601Z,10.92
2023-04-02T15:56:26.601Z,10.97
2023-04-02T15:59:48.053Z,11.22
2023-04-02T16:03:08.979Z,11.47
2023-04-02T16:06:17.292Z,11.44
2023-04-02T16:09:27.367Z,11.74
2023-04-02T16:12:30.941Z,11.86
2023-04-02T16:15:38.581Z,11.95
2023-04-02T16:18:51.903Z,11.94
2023-04-02T16:22:01.671Z,12.08
2023-04-02T16:25:14.025Z,12.19
2023-04-02T16:28:22.192Z,12.44
2023-04-02T16:31:36.820Z,12.47
2023-04-02T16:35:09.516Z,12.55
2023-04-02T16:38:39.023Z,12.50
2023-04-02T16:41:41.050Z,12.51
2023-04-02T16:44:50.404Z,12.60
2023-04-02T16:48:07.925Z,12.49
2023-04-02T16:51:35.670Z,12.51
2023-04-02T16:54:59.912Z,12.50
2023-04-02T16:58:11.633Z,12.55
2023-04-02T17:01:25.687Z,12.35
2023-04-02T17:04:39.717Z,11.83
2023-04-02T17:07:54.533Z,11.78
2023-04-02T17:10:59.678Z,11.79
2023-04-02T17:14:06.131Z,11.76
2023-04-02T17:17:10.494Z,11.51
2023-04-02T17:20:19.054Z,11.49
2023-04-02T17:23:21.900Z,11.23
2023-04-02T17:26:28.419Z,11.17
2023-04-02T17:29:38.867Z,11.18
2023-04-02T17:32:41.175Z,11.06
2023-04-02T17:36:02.809Z,11.06
2023-04-02T17:39:11.188Z,10.95
2023-04-02T17:42:21.462Z,10.96
2023-04-02T17:45:43.801Z,10.87
2023-04-02T17:48:47.708Z,10.90
2023-04-02T17:52:08.647Z,10.60
2023-04-02T17:55:11.111Z,10.47
2023-04-02T17:58:26.502Z,10.48
2023-04-02T18:01:34.942Z,10.19
2023-04-02T18:04:37.274Z,10.19
2023-04-02T18:08:02.596Z,10.11
2023-04-02T18:11:09.999Z,9.98
2023-04-02T18:14:35.611Z,9.96
2023-04-02T18:17:47.755Z,9.77
2023-04-02T18:21:02.320Z,9.82
2023-04-02T18:24:24.942Z,9.63
2023-04-02T18:27:32.996Z,9.48
2023-04-02T18:30:39.105Z,9.49
2023-04-02T18:33:56.892Z,9.44
2023-04-02T18:37:28.527Z,9.55
2023-04-02T18:40:37.556Z,9.54
2023-04-02T18:44:04.126Z,9.40
2023-04-02T18:47:06.178Z,9.46
2023-04-02T18:50:23.886Z,9.45
2023-04-02T18:53:26.494Z,9.40
2023-04-02T18:56:30.472Z,9.43
2023-04-02T18:59:38.106Z,9.49
2023-04-02T19:02:42.967Z,9.41
2023-04-02T19:06:05.516Z,9.48
2023-04-02T19:09:32.259Z,9.47
2023-04-02T19:12:35.555Z,9.29
2023-04-02T19:15:43.250Z,9.45
2023-04-02T19:19:04.081Z,9.28
2023-04-02T19:22:12.566Z,9.31
2023-04-02T19:25:36.636Z,9.38
2023-04-02T19:28:43.325Z,9.18
2023-04-02T19:31:52.437Z,8.92
2023-04-02T19:35:04.923Z,9.03
2023-04-02T19:38:12.822Z,8.99
2023-04-02T19:41:26.514Z,9.03
2023-04-02T19:44:28.577Z,8.85
2023-04-02T19:47:31.052Z,8.83
2023-04-02T19:50:33.179Z,8.86
2023-04-02T19:53:37.382Z,8.83
2023-04-02T19:56:39.825Z,8.78
2023-04-02T19:59:42.324Z,8.89
2023-04-02T20:02:44.443Z,8.84
2023-04-02T20:05:46.822Z,9.01
2023-04-02T20:08:48.926Z,9.01
2023-04-02T20:11:51.439Z,8.94
2023-04-02T20:14:55.858Z,9.00
2023-04-02T20:17:58.257Z,8.82
2023-04-02T20:21:04.301Z,8.91
2023-04-02T20:24:07.442Z,9.11
2023-04-02T20:27:09.650Z,8.90
2023-04-02T20:30:12.250Z,8.83
2023-04-02T20:33:14.468Z,9.25
2023-04-02T20:36:17.687Z,9.03
2023-04-02T20:39:20.382Z,8.91
2023-04-02T20:42:22.809Z,8.97
2023-04-02T20:45:27.779Z,8.86
2023-04-02T20:48:33.224Z,8.96
2023-04-02T20:51:35.384Z,9.18
2023-04-02T20:54:37.785Z,8.96
2023-04-02T20:57:39.801Z,8.92
2023-04-02T21:00:42.242Z,8.89
2023-04-02T21:03:44.782Z,8.74
2023-04-02T21:06:47.401Z,8.51
2023-04-02T21:09:49.412Z,8.86
2023-04-02T21:12:51.769Z,8.89
2023-04-02T21:15:53.832Z,8.95
2023-04-02T21:18:58.346Z,8.96
2023-04-02T21:22:00.561Z,8.91
2023-04-02T21:25:02.983Z,9.07
2023-04-02T21:28:05.051Z,8.63
2023-04-02T21:31:07.384Z,8.75
2023-04-02T21:34:12.642Z,8.72
2023-04-02T21:37:15.464Z,9.00
2023-04-02T21:40:17.599Z,9.18
2023-04-02T21:43:20.344Z,8.86
2023-04-02T21:46:23.622Z,8.87
2023-04-02T21:49:27.218Z,9.14
2023-04-02T21:52:29.275Z,9.03
2023-04-02T21:55:31.946Z,8.97
2023-04-02T21:58:34.491Z,8.84
2023-04-02T22:01:39.064Z,8.76
2023-04-02T22:04:41.873Z,8.79
2023-04-02T22:07:44.152Z,8.90
2023-04-02T22:10:46.520Z,8.99
2023-04-02T22:13:49.687Z,8.92
2023-04-02T22:16:52.380Z,8.79
2023-04-02T22:19:54.705Z,9.00
2023-04-02T22:22:57.165Z,8.91
2023-04-02T22:26:00.408Z,8.83
2023-04-02T22:29:05.792Z,8.62
2023-04-02T22:32:07.844Z,8.68
2023-04-02T22:35:10.349Z,8.78
2023-04-02T22:38:12.439Z,8.95
2023-04-02T22:41:16.709Z,8.98
2023-04-02T22:44:18.803Z,8.82
2023-04-02T22:47:21.603Z,8.77
2023-04-02T22:50:24.307Z,8.75
2023-04-02T22:53:26.751Z,8.73
2023-04-02T22:56:32.170Z,8.73
2023-04-02T22:59:34.758Z,8.69
2023-04-02T23:02:37.088Z,8.57
2023-04-02T23:05:39.852Z,8.90
2023-04-02T23:08:42.293Z,8.60
2023-04-02T23:11:44.841Z,8.59
2023-04-02T23:14:47.095Z,8.64
2023-04-02T23:17:49.576Z,8.77
2023-04-02T23:20:51.704Z,8.80
2023-04-02T23:23:54.324Z,8.79
2023-04-02T23:26:56.397Z,8.58
2023-04-02T23:29:58.777Z,8.44
2023-04-02T23:33:02.201Z,8.27
2023-04-02T23:36:06.693Z,8.35
2023-04-02T23:39:11.485Z,8.40
2023-04-02T23:42:13.906Z,8.41
2023-04-02T23:45:16.264Z,8.46
2023-04-02T23:48:18.710Z,8.47
2023-04-02T23:51:20.730Z,8.55
2023-04-02T23:54:23.143Z,8.41
2023-04-02T23:57:25.239Z,8.27
